createdAt,value
2023-04-09T00:00:38.306Z,1204.00
2023-04-09T00:01:38.341Z,1203.00
2023-04-09T00:02:38.396Z,1214.00
2023-04-09T00:03:38.407Z,1189.00
2023-04-09T00:04:38.351Z,1193.00
2023-04-09T00:05:38.312Z,1199.00
2023-04-09T00:06:38.305Z,1197.00
2023-04-09T00:07:38.311Z,1204.00
2023-04-09T00:08:38.316Z,1188.00
2023-04-09T00:09:38.311Z,1191.00
2023-04-09T00:10:38.310Z,1174.00
2023-04-09T00:11:38.326Z,1150.00
2023-04-09T00:12:38.313Z,1169.00
2023-04-09T00:13:39.913Z,1171.00
2023-04-09T00:14:38.307Z,1173.00
2023-04-09T00:15:38.306Z,1169.00
2023-04-09T00:16:38.373Z,1173.00
2023-04-09T00:17:38.344Z,1137.00
2023-04-09T00:18:38.327Z,1156.00
2023-04-09T00:19:38.335Z,1139.00
2023-04-09T00:20:38.328Z,1139.00
2023-04-09T00:21:38.349Z,1142.00
2023-04-09T00:22:38.403Z,1140.00
2023-04-09T00:23:38.407Z,1143.00
2023-04-09T00:24:38.438Z,1144.00
2023-04-09T00:25:38.467Z,1120.00
2023-04-09T00:26:38.476Z,1144.00
2023-04-09T00:27:38.515Z,1143.00
2023-04-09T00:28:38.527Z,1114.00
2023-04-09T00:29:38.554Z,1110.00
2023-04-09T00:30:38.588Z,1122.00
2023-04-09T00:31:38.619Z,1114.00
2023-04-09T00:32:38.632Z,1131.00
2023-04-09T00:33:38.643Z,1096.00
2023-04-09T00:34:38.667Z,1119.00
2023-04-09T00:35:38.703Z,1123.00
2023-04-09T00:36:38.707Z,1132.00
2023-04-09T00:37:38.735Z,1129.00
2023-04-09T00:38:38.772Z,1149.00
2023-04-09T00:39:38.760Z,1139.00
2023-04-09T00:40:38.748Z,1135.00
2023-04-09T00:41:38.752Z,1149.00
2023-04-09T00:42:38.750Z,1135.00
2023-04-09T00:43:38.745Z,1137.00
2023-04-09T00:44:38.745Z,1144.00
2023-04-09T00:45:38.761Z,1149.00
2023-04-09T00:46:38.758Z,1148.00
2023-04-09T00:47:38.804Z,1149.00
2023-04-09T00:48:38.747Z,1163.00
2023-04-09T00:49:38.738Z,1177.00
2023-04-09T00:50:38.735Z,1176.00
2023-04-09T00:51:38.770Z,1177.00
2023-04-09T00:52:38.735Z,1164.00
2023-04-09T00:53:38.741Z,1170.00
2023-04-09T00:54:38.776Z,1186.00
2023-04-09T00:55:38.763Z,1177.00
2023-04-09T00:56:38.752Z,1183.00
2023-04-09T00:57:38.749Z,1191.00
2023-04-09T00:58:38.764Z,1193.00
2023-04-09T00:59:38.767Z,1190.00
2023-04-09T01:00:38.761Z,1216.00
2023-04-09T01:01:38.790Z,1202.00
2023-04-09T01:02:39.025Z,1206.00
2023-04-09T01:03:38.946Z,1239.00
2023-04-09T01:04:38.846Z,1223.00
2023-04-09T01:05:38.870Z,1224.00
2023-04-09T01:06:38.873Z,1234.00
2023-04-09T01:07:38.911Z,1235.00
2023-04-09T01:08:38.973Z,1228.00
2023-04-09T01:09:38.979Z,1224.00
2023-04-09T01:10:39.000Z,1231.00
2023-04-09T01:11:39.055Z,1233.00
2023-04-09T01:12:39.075Z,1247.00
2023-04-09T01:13:39.098Z,1234.00
2023-04-09T01:14:39.129Z,1256.00
2023-04-09T01:15:39.129Z,1257.00
2023-04-09T01:16:39.172Z,1258.00
2023-04-09T01:17:39.148Z,1260.00
2023-04-09T01:18:39.126Z,1262.00
2023-04-09T01:19:39.172Z,1268.00
2023-04-09T01:20:39.137Z,1271.00
2023-04-09T01:21:39.133Z,1263.00
2023-04-09T01:22:39.161Z,1259.00
2023-04-09T01:23:39.152Z,1272.00
2023-04-09T01:24:39.164Z,1246.00
2023-04-09T01:25:39.175Z,1260.00
2023-04-09T01:26:39.158Z,1278.00
2023-04-09T01:27:39.174Z,1283.00
2023-04-09T01:28:39.179Z,1275.00
2023-04-09T01:29:39.183Z,1272.00
2023-04-09T01:30:39.193Z,1272.00
2023-04-09T01:31:39.180Z,1256.00
2023-04-09T01:32:39.224Z,1264.00
2023-04-09T01:33:39.182Z,1271.00
2023-04-09T01:34:39.235Z,1272.00
2023-04-09T01:35:39.194Z,1272.00
2023-04-09T01:36:39.189Z,1274.00
2023-04-09T01:37:39.195Z,1279.00
2023-04-09T01:38:39.200Z,1278.00
2023-04-09T01:39:39.197Z,1274.00
2023-04-09T01:40:39.207Z,1280.00
2023-04-09T01:41:39.211Z,1263.00
2023-04-09T01:42:39.225Z,1277.00
2023-04-09T01:43:39.204Z,1275.00
2023-04-09T01:44:39.195Z,1286.00
2023-04-09T01:45:39.196Z,1277.00
2023-04-09T01:46:39.199Z,1269.00
2023-04-09T01:47:39.223Z,1263.00
2023-04-09T01:48:39.191Z,1276.00
2023-04-09T01:49:39.211Z,1246.00
2023-04-09T01:50:39.218Z,1246.00
2023-04-09T01:51:39.200Z,1252.00
2023-04-09T01:52:39.208Z,1255.00
2023-04-09T01:53:39.213Z,1252.00
2023-04-09T01:54:39.197Z,1242.00
2023-04-09T01:55:39.196Z,1232.00
2023-04-09T01:56:39.197Z,1218.00
2023-04-09T01:57:39.218Z,1205.00
2023-04-09T01:58:39.233Z,1214.00
2023-04-09T01:59:39.257Z,1219.00
2023-04-09T02:00:39.298Z,1226.00
2023-04-09T02:01:39.369Z,1216.00
2023-04-09T02:02:39.400Z,1215.00
2023-04-09T02:03:39.401Z,1207.00
2023-04-09T02:04:39.374Z,1195.00
2023-04-09T02:05:39.417Z,1193.00
2023-04-09T02:06:39.436Z,1214.00
2023-04-09T02:07:39.465Z,1194.00
2023-04-09T02:08:39.509Z,1218.00
2023-04-09T02:09:39.538Z,1212.00
2023-04-09T02:10:39.555Z,1189.00
2023-04-09T02:11:39.572Z,1203.00
2023-04-09T02:12:39.607Z,1187.00
2023-04-09T02:13:39.623Z,1187.00
2023-04-09T02:14:39.690Z,1196.00
2023-04-09T02:15:39.725Z,1192.00
2023-04-09T02:16:39.699Z,1202.00
2023-04-09T02:17:39.719Z,1197.00
2023-04-09T02:18:39.738Z,1179.00
2023-04-09T02:19:39.754Z,1193.00
2023-04-09T02:20:39.788Z,1188.00
2023-04-09T02:21:39.812Z,1163.00
2023-04-09T02:22:39.829Z,1160.00
2023-04-09T02:23:39.837Z,1167.00
2023-04-09T02:24:39.876Z,1178.00
2023-04-09T02:25:39.913Z,1176.00
2023-04-09T02:26:39.911Z,1170.00
2023-04-09T02:27:39.941Z,1165.00
2023-04-09T02:28:39.959Z,1163.00
2023-04-09T02:29:39.987Z,1175.00
2023-04-09T02:30:40.007Z,1162.00
2023-04-09T02:31:40.015Z,1156.00
2023-04-09T02:32:40.103Z,1146.00
2023-04-09T02:33:40.074Z,1159.00
2023-04-09T02:34:40.092Z,1151.00
2023-04-09T02:35:40.156Z,1158.00
2023-04-09T02:36:40.156Z,1151.00
2023-04-09T02:37:40.182Z,1143.00
2023-04-09T02:38:40.224Z,1130.00
2023-04-09T02:39:40.263Z,1130.00
2023-04-09T02:40:40.277Z,1149.00
2023-04-09T02:41:40.304Z,1113.00
2023-04-09T02:42:40.353Z,1110.00
2023-04-09T02:43:40.353Z,1097.00
2023-04-09T02:44:40.398Z,1124.00
2023-04-09T02:45:40.422Z,1106.00
2023-04-09T02:46:40.532Z,1113.00
2023-04-09T02:47:40.523Z,1129.00
2023-04-09T02:48:40.516Z,1112.00
2023-04-09T02:49:40.554Z,1125.00
2023-04-09T02:50:40.592Z,1128.00
2023-04-09T02:51:40.615Z,1138.00
2023-04-09T02:52:40.639Z,1102.00
2023-04-09T02:53:40.664Z,1116.00
2023-04-09T02:54:40.693Z,1114.00
2023-04-09T02:55:40.732Z,1111.00
2023-04-09T02:56:40.765Z,1098.00
2023-04-09T02:57:40.796Z,1111.00
2023-04-09T02:58:40.822Z,1080.00
2023-04-09T02:59:40.842Z,1099.00
2023-04-09T03:00:40.873Z,1091.00
2023-04-09T03:01:40.967Z,1106.00
2023-04-09T03:02:41.025Z,1081.00
2023-04-09T03:03:41.089Z,1099.00
2023-04-09T03:04:41.028Z,1107.00
2023-04-09T03:05:41.062Z,1113.00
2023-04-09T03:06:41.076Z,1115.00
2023-04-09T03:07:41.100Z,1095.00
2023-04-09T03:08:41.134Z,1078.00
2023-04-09T03:09:41.165Z,1096.00
2023-04-09T03:10:41.226Z,1082.00
2023-04-09T03:11:41.239Z,1078.00
2023-04-09T03:12:41.273Z,1105.00
2023-04-09T03:13:41.305Z,1116.00
2023-04-09T03:14:41.333Z,1131.00
2023-04-09T03:15:41.467Z,1131.00
2023-04-09T03:16:41.414Z,1142.00
2023-04-09T03:17:41.489Z,1164.00
2023-04-09T03:18:41.540Z,1191.00
2023-04-09T03:19:41.616Z,1207.00
2023-04-09T03:20:41.673Z,1225.00
2023-04-09T03:21:41.733Z,1234.00
2023-04-09T03:22:41.802Z,1251.00
2023-04-09T03:23:41.859Z,1253.00
2023-04-09T03:24:41.972Z,1266.00
2023-04-09T03:25:41.977Z,1286.00
2023-04-09T03:26:42.073Z,1286.00
2023-04-09T03:27:42.071Z,1301.00
2023-04-09T03:28:42.074Z,1313.00
2023-04-09T03:29:42.104Z,1326.00
2023-04-09T03:30:42.163Z,1323.00
2023-04-09T03:31:42.241Z,1357.00
2023-04-09T03:32:42.201Z,1358.00
2023-04-09T03:33:42.269Z,1355.00
2023-04-09T03:34:42.257Z,1375.00
2023-04-09T03:35:42.324Z,1374.00
2023-04-09T03:36:42.363Z,1390.00
2023-04-09T03:37:42.398Z,1393.00
2023-04-09T03:38:42.457Z,1404.00
2023-04-09T03:39:42.492Z,1416.00
2023-04-09T03:40:42.511Z,1426.00
2023-04-09T03:41:42.562Z,1436.00
2023-04-09T03:42:42.578Z,1431.00
2023-04-09T03:43:42.616Z,1424.00
2023-04-09T03:44:42.643Z,1440.00
2023-04-09T03:45:42.680Z,1450.00
2023-04-09T03:46:42.731Z,1454.00
2023-04-09T03:47:42.822Z,1430.00
2023-04-09T03:48:42.761Z,1426.00
2023-04-09T03:49:42.817Z,1462.00
2023-04-09T03:50:42.836Z,1473.00
2023-04-09T03:51:42.869Z,1500.00
2023-04-09T03:52:42.910Z,1510.00
2023-04-09T03:53:42.919Z,1493.00
2023-04-09T03:54:42.955Z,1509.00
2023-04-09T03:55:42.984Z,1520.00
2023-04-09T03:56:43.017Z,1519.00
2023-04-09T03:57:43.036Z,1511.00
2023-04-09T03:58:43.075Z,1526.00
2023-04-09T03:59:43.107Z,1522.00
2023-04-09T04:00:43.141Z,1512.00
2023-04-09T04:01:43.208Z,1528.00
2023-04-09T04:02:43.285Z,1521.00
2023-04-09T04:03:43.377Z,1552.00
2023-04-09T04:04:43.281Z,1555.00
2023-04-09T04:05:43.284Z,1565.00
2023-04-09T04:06:43.329Z,1551.00
2023-04-09T04:07:43.363Z,1562.00
2023-04-09T04:08:43.389Z,1559.00
2023-04-09T04:09:43.439Z,1568.00
2023-04-09T04:10:43.474Z,1575.00
2023-04-09T04:11:43.510Z,1547.00
2023-04-09T04:12:43.556Z,1566.00
2023-04-09T04:13:43.569Z,1567.00
2023-04-09T04:14:43.604Z,1564.00
2023-04-09T04:15:43.631Z,1544.00
2023-04-09T04:16:43.687Z,1566.00
2023-04-09T04:17:43.724Z,1557.00
2023-04-09T04:18:43.714Z,1584.00
2023-04-09T04:19:43.729Z,1574.00
2023-04-09T04:20:43.759Z,1569.00
2023-04-09T04:21:43.790Z,1555.00
2023-04-09T04:22:43.825Z,1574.00
2023-04-09T04:23:43.846Z,1559.00
2023-04-09T04:24:43.873Z,1571.00
2023-04-09T04:25:43.895Z,1578.00
2023-04-09T04:26:43.935Z,1571.00
2023-04-09T04:27:43.962Z,1564.00
2023-04-09T04:28:43.983Z,1582.00
2023-04-09T04:29:44.006Z,1566.00
2023-04-09T04:30:44.041Z,1583.00
2023-04-09T04:31:44.104Z,1579.00
2023-04-09T04:32:44.102Z,1591.00
2023-04-09T04:33:44.105Z,1594.00
2023-04-09T04:34:44.171Z,1588.00
2023-04-09T04:35:44.201Z,1592.00
2023-04-09T04:36:44.198Z,1583.00
2023-04-09T04:37:44.208Z,1608.00
2023-04-09T04:38:44.228Z,1595.00
2023-04-09T04:39:44.258Z,1592.00
2023-04-09T04:40:44.266Z,1607.00
2023-04-09T04:41:44.294Z,1607.00
2023-04-09T04:42:44.339Z,1604.00
2023-04-09T04:43:44.344Z,1588.00
2023-04-09T04:44:44.367Z,1617.00
2023-04-09T04:45:44.455Z,1603.00
2023-04-09T04:46:44.418Z,1610.00
2023-04-09T04:47:44.481Z,1607.00
2023-04-09T04:48:44.459Z,1612.00
2023-04-09T04:49:44.478Z,1604.00
2023-04-09T04:50:44.521Z,1613.00
2023-04-09T04:51:44.529Z,1615.00
2023-04-09T04:52:44.571Z,1623.00
2023-04-09T04:53:44.602Z,1622.00
2023-04-09T04:54:44.623Z,1612.00
2023-04-09T04:55:44.653Z,1617.00
2023-04-09T04:56:44.686Z,1602.00
2023-04-09T04:57:44.683Z,1629.00
2023-04-09T04:58:44.707Z,1633.00
2023-04-09T04:59:44.735Z,1636.00
2023-04-09T05:00:44.775Z,1636.00
2023-04-09T05:01:44.842Z,1628.00
2023-04-09T05:02:44.870Z,1656.00
2023-04-09T05:03:44.951Z,1645.00
2023-04-09T05:04:44.826Z,1632.00
2023-04-09T05:05:44.820Z,1654.00
2023-04-09T05:06:44.810Z,1651.00
2023-04-09T05:07:44.824Z,1631.00
2023-04-09T05:08:44.817Z,1649.00
2023-04-09T05:09:44.817Z,1650.00
2023-04-09T05:10:44.806Z,1650.00
2023-04-09T05:11:44.813Z,1654.00
2023-04-09T05:12:44.812Z,1662.00
2023-04-09T05:13:44.825Z,1651.00
2023-04-09T05:14:44.825Z,1653.00
2023-04-09T05:15:44.814Z,1656.00
2023-04-09T05:16:44.846Z,1664.00
2023-04-09T05:17:44.837Z,1668.00
2023-04-09T05:18:44.807Z,1654.00
2023-04-09T05:19:44.808Z,1660.00
2023-04-09T05:20:44.800Z,1653.00
2023-04-09T05:21:46.792Z,1673.00
2023-04-09T05:22:44.796Z,1669.00
2023-04-09T05:23:44.796Z,1671.00
2023-04-09T05:24:44.803Z,1667.00
2023-04-09T05:25:44.807Z,1670.00
2023-04-09T05:26:44.798Z,1668.00
2023-04-09T05:27:44.789Z,1671.00
2023-04-09T05:28:44.792Z,1669.00
2023-04-09T05:29:44.789Z,1671.00
2023-04-09T05:30:44.816Z,1677.00
2023-04-09T05:31:44.791Z,1681.00
2023-04-09T05:32:44.826Z,1675.00
2023-04-09T05:33:44.825Z,1683.00
2023-04-09T05:34:44.869Z,1674.00
2023-04-09T05:35:44.812Z,1674.00
2023-04-09T05:36:44.794Z,1689.00
2023-04-09T05:37:44.839Z,1673.00
2023-04-09T05:38:44.810Z,1665.00
2023-04-09T05:39:44.796Z,1683.00
2023-04-09T05:40:44.801Z,1682.00
2023-04-09T05:41:44.826Z,1686.00
2023-04-09T05:42:44.798Z,1691.00
2023-04-09T05:43:44.790Z,1695.00
2023-04-09T05:44:44.813Z,1689.00
2023-04-09T05:45:44.859Z,1652.00
2023-04-09T05:46:44.792Z,1666.00
2023-04-09T05:47:44.846Z,1681.00
2023-04-09T05:48:44.791Z,1677.00
2023-04-09T05:49:44.797Z,1686.00
2023-04-09T05:50:54.636Z,1694.00
2023-04-09T05:51:45.787Z,1695.00
2023-04-09T05:52:44.798Z,1696.00
2023-04-09T05:53:44.801Z,1698.00
2023-04-09T05:54:44.783Z,1700.00
2023-04-09T05:55:44.773Z,1688.00
2023-04-09T05:56:44.780Z,1676.00
2023-04-09T05:57:44.788Z,1708.00
2023-04-09T05:58:44.773Z,1708.00
2023-04-09T05:59:44.782Z,1709.00
2023-04-09T06:00:44.781Z,1690.00
2023-04-09T06:01:44.802Z,1682.00
2023-04-09T06:02:44.806Z,1692.00
2023-04-09T06:03:44.901Z,1682.00
2023-04-09T06:04:44.820Z,1681.00
2023-04-09T06:05:44.792Z,1682.00
2023-04-09T06:06:44.797Z,1694.00
2023-04-09T06:07:44.797Z,1684.00
2023-04-09T06:08:44.791Z,1680.00
2023-04-09T06:09:44.806Z,1665.00
2023-04-09T06:10:44.803Z,1673.00
2023-04-09T06:11:44.798Z,1653.00
2023-04-09T06:12:44.802Z,1625.00
2023-04-09T06:13:44.818Z,1628.00
2023-04-09T06:14:44.796Z,1598.00
2023-04-09T06:15:44.843Z,1590.00
2023-04-09T06:16:44.812Z,1575.00
2023-04-09T06:17:44.894Z,1575.00
2023-04-09T06:18:44.793Z,1568.00
2023-04-09T06:19:44.794Z,1543.00
2023-04-09T06:20:44.795Z,1517.00
2023-04-09T06:21:44.805Z,1532.00
2023-04-09T06:22:44.802Z,1497.00
2023-04-09T06:23:44.787Z,1484.00
2023-04-09T06:24:44.803Z,1484.00
2023-04-09T06:25:44.799Z,1483.00
2023-04-09T06:26:44.782Z,1455.00
2023-04-09T06:27:44.800Z,1426.00
2023-04-09T06:28:44.788Z,1391.00
2023-04-09T06:29:44.789Z,1388.00
2023-04-09T06:30:44.841Z,1391.00
2023-04-09T06:31:44.795Z,1371.00
2023-04-09T06:32:54.632Z,1342.00
2023-04-09T06:33:45.823Z,1342.00
2023-04-09T06:34:44.819Z,1344.00
2023-04-09T06:35:44.893Z,1332.00
2023-04-09T06:36:44.803Z,1314.00
2023-04-09T06:37:44.832Z,1306.00
2023-04-09T06:38:44.833Z,1295.00
2023-04-09T06:39:57.733Z,1281.00
2023-04-09T06:40:45.833Z,1298.00
2023-04-09T06:41:44.852Z,1266.00
2023-04-09T06:42:44.855Z,1227.00
2023-04-09T06:43:44.853Z,1244.00
2023-04-09T06:44:44.878Z,1235.00
2023-04-09T06:45:44.877Z,1232.00
2023-04-09T06:46:44.948Z,1221.00
2023-04-09T06:47:44.938Z,1215.00
2023-04-09T06:48:44.889Z,1206.00
2023-04-09T06:49:44.905Z,1194.00
2023-04-09T06:50:44.905Z,1205.00
2023-04-09T06:51:44.912Z,1187.00
2023-04-09T06:52:44.917Z,1179.00
2023-04-09T06:53:45.000Z,1154.00
2023-04-09T06:54:45.237Z,1145.00
2023-04-09T06:55:44.937Z,1164.00
2023-04-09T06:56:44.933Z,1136.00
2023-04-09T06:57:44.986Z,1133.00
2023-04-09T06:58:44.968Z,1136.00
2023-04-09T06:59:44.981Z,1135.00
2023-04-09T07:00:44.974Z,1159.00
2023-04-09T07:01:45.088Z,1155.00
2023-04-09T07:02:45.158Z,1180.00
2023-04-09T07:03:45.094Z,1170.00
2023-04-09T07:04:45.118Z,1197.00
2023-04-09T07:05:45.088Z,1202.00
2023-04-09T07:06:45.101Z,1232.00
2023-04-09T07:07:45.137Z,1214.00
2023-04-09T07:08:45.357Z,1232.00
2023-04-09T07:09:45.203Z,1264.00
2023-04-09T07:10:45.233Z,1288.00
2023-04-09T07:11:45.268Z,1284.00
2023-04-09T07:12:45.305Z,1293.00
2023-04-09T07:13:45.341Z,1307.00
2023-04-09T07:14:45.372Z,1319.00
2023-04-09T07:15:45.456Z,1329.00
2023-04-09T07:16:45.424Z,1317.00
2023-04-09T07:17:45.475Z,1326.00
2023-04-09T07:18:45.497Z,1338.00
2023-04-09T07:19:45.516Z,1357.00
2023-04-09T07:20:45.543Z,1338.00
2023-04-09T07:21:45.593Z,1354.00
2023-04-09T07:22:45.617Z,1381.00
2023-04-09T07:23:45.649Z,1396.00
2023-04-09T07:24:45.675Z,1391.00
2023-04-09T07:25:45.708Z,1414.00
2023-04-09T07:26:45.733Z,1404.00
2023-04-09T07:27:45.772Z,1406.00
2023-04-09T07:28:45.808Z,1415.00
2023-04-09T07:29:45.837Z,1403.00
2023-04-09T07:30:45.866Z,1421.00
2023-04-09T07:31:45.984Z,1411.00
2023-04-09T07:32:45.982Z,1404.00
2023-04-09T07:33:45.954Z,1427.00
2023-04-09T07:34:45.980Z,1433.00
2023-04-09T07:35:46.057Z,1446.00
2023-04-09T07:36:46.022Z,1447.00
2023-04-09T07:37:46.030Z,1447.00
2023-04-09T07:38:46.043Z,1447.00
2023-04-09T07:39:46.042Z,1447.00
2023-04-09T07:40:46.077Z,1447.00
2023-04-09T07:41:46.322Z,1450.00
2023-04-09T07:42:46.044Z,1463.00
2023-04-09T07:43:46.068Z,1479.00
2023-04-09T07:44:46.056Z,1502.00
2023-04-09T07:45:46.070Z,1506.00
2023-04-09T07:46:46.088Z,1505.00
2023-04-09T07:47:46.093Z,1493.00
2023-04-09T07:48:47.851Z,1485.00
2023-04-09T07:49:46.076Z,1488.00
2023-04-09T07:50:46.081Z,1510.00
2023-04-09T07:51:46.096Z,1507.00
2023-04-09T07:52:46.091Z,1491.00
2023-04-09T07:53:46.094Z,1498.00
2023-04-09T07:54:46.119Z,1488.00
2023-04-09T07:55:46.135Z,1489.00
2023-04-09T07:56:46.128Z,1496.00
2023-04-09T07:57:46.140Z,1500.00
2023-04-09T07:58:46.129Z,1503.00
2023-04-09T07:59:46.138Z,1535.00
2023-04-09T08:00:46.140Z,1542.00
2023-04-09T08:01:46.223Z,1534.00
2023-04-09T08:02:46.285Z,1540.00
2023-04-09T08:03:46.234Z,1534.00
2023-04-09T08:04:46.211Z,1540.00
2023-04-09T08:05:46.152Z,1558.00
2023-04-09T08:06:46.148Z,1558.00
2023-04-09T08:07:46.149Z,1558.00
2023-04-09T08:08:46.152Z,1555.00
2023-04-09T08:09:46.166Z,1554.00
2023-04-09T08:10:46.155Z,1574.00
2023-04-09T08:11:46.136Z,1583.00
2023-04-09T08:12:46.135Z,1569.00
2023-04-09T08:13:46.151Z,1565.00
2023-04-09T08:14:46.129Z,1589.00
2023-04-09T08:15:46.131Z,1599.00
2023-04-09T08:16:46.309Z,1589.00
2023-04-09T08:17:46.174Z,1600.00
2023-04-09T08:18:46.127Z,1583.00
2023-04-09T08:19:46.117Z,1582.00
2023-04-09T08:20:46.107Z,1583.00
2023-04-09T08:21:46.124Z,1591.00
2023-04-09T08:22:46.120Z,1612.00
2023-04-09T08:23:46.125Z,1613.00
2023-04-09T08:24:46.104Z,1614.00
2023-04-09T08:25:46.111Z,1613.00
2023-04-09T08:26:46.110Z,1616.00
2023-04-09T08:27:46.123Z,1613.00
2023-04-09T08:28:46.118Z,1622.00
2023-04-09T08:29:46.093Z,1613.00
2023-04-09T08:30:46.092Z,1615.00
2023-04-09T08:31:46.189Z,1614.00
2023-04-09T08:32:46.124Z,1619.00
2023-04-09T08:33:46.083Z,1627.00
2023-04-09T08:34:46.093Z,1625.00
2023-04-09T08:35:46.093Z,1623.00
2023-04-09T08:36:46.092Z,1626.00
2023-04-09T08:37:46.065Z,1602.00
2023-04-09T08:38:46.063Z,1569.00
2023-04-09T08:39:46.082Z,1546.00
2023-04-09T08:40:46.036Z,1525.00
2023-04-09T08:41:46.036Z,1496.00
2023-04-09T08:42:46.034Z,1477.00
2023-04-09T08:43:57.031Z,1472.00
2023-04-09T08:44:47.017Z,1450.00
2023-04-09T08:45:46.022Z,1437.00
2023-04-09T08:46:46.019Z,1410.00
2023-04-09T08:47:46.032Z,1396.00
2023-04-09T08:48:46.006Z,1386.00
2023-04-09T08:49:45.999Z,1383.00
2023-04-09T08:50:45.993Z,1373.00
2023-04-09T08:51:45.998Z,1367.00
2023-04-09T08:52:45.979Z,1336.00
2023-04-09T08:53:45.987Z,1327.00
2023-04-09T08:54:46.011Z,1329.00
2023-04-09T08:55:45.966Z,1339.00
2023-04-09T08:56:45.960Z,1332.00
2023-04-09T08:57:45.981Z,1333.00
2023-04-09T08:58:45.977Z,1339.00
2023-04-09T08:59:45.957Z,1322.00
2023-04-09T09:00:46.454Z,1333.00
2023-04-09T09:01:46.020Z,1313.00
2023-04-09T09:02:45.988Z,1293.00
2023-04-09T09:03:46.015Z,1289.00
2023-04-09T09:04:45.934Z,1298.00
2023-04-09T09:05:45.915Z,1314.00
2023-04-09T09:06:45.937Z,1326.00
2023-04-09T09:07:45.907Z,1346.00
2023-04-09T09:08:45.907Z,1356.00
2023-04-09T09:09:45.915Z,1339.00
2023-04-09T09:10:45.889Z,1346.00
2023-04-09T09:11:45.875Z,1321.00
2023-04-09T09:12:45.865Z,1329.00
2023-04-09T09:13:45.863Z,1334.00
2023-04-09T09:14:45.876Z,1321.00
2023-04-09T09:15:45.878Z,1315.00
2023-04-09T09:16:45.965Z,1303.00
2023-04-09T09:17:45.926Z,1317.00
2023-04-09T09:18:45.885Z,1304.00
2023-04-09T09:19:45.896Z,1272.00
2023-04-09T09:20:45.910Z,1281.00
2023-04-09T09:21:45.907Z,1302.00
2023-04-09T09:22:45.897Z,1278.00
2023-04-09T09:23:45.941Z,1277.00
2023-04-09T09:24:47.686Z,1267.00
2023-04-09T09:25:45.920Z,1259.00
2023-04-09T09:26:45.925Z,1252.00
2023-04-09T09:27:45.902Z,1239.00
2023-04-09T09:28:45.890Z,1252.00
2023-04-09T09:29:45.894Z,1242.00
2023-04-09T09:30:47.887Z,1230.00
2023-04-09T09:31:45.890Z,1230.00
2023-04-09T09:32:45.907Z,1207.00
2023-04-09T09:33:45.916Z,1187.00
2023-04-09T09:34:45.877Z,1192.00
2023-04-09T09:35:45.885Z,1195.00
2023-04-09T09:36:45.868Z,1175.00
2023-04-09T09:37:45.858Z,1179.00
2023-04-09T09:38:45.856Z,1164.00
2023-04-09T09:39:45.847Z,1150.00
2023-04-09T09:40:45.837Z,1148.00
2023-04-09T09:41:45.834Z,1146.00
2023-04-09T09:42:45.824Z,1089.00
2023-04-09T09:43:45.824Z,1096.00
2023-04-09T09:44:45.819Z,1059.00
2023-04-09T09:45:45.861Z,1030.00
2023-04-09T09:46:45.808Z,1034.00
2023-04-09T09:47:45.885Z,988.00
2023-04-09T09:48:45.824Z,952.00
2023-04-09T09:49:45.815Z,921.00
2023-04-09T09:50:45.815Z,911.00
2023-04-09T09:51:45.802Z,888.00
2023-04-09T09:52:45.795Z,869.00
2023-04-09T09:53:47.704Z,877.00
2023-04-09T09:54:45.785Z,877.00
2023-04-09T09:55:45.763Z,866.00
2023-04-09T09:56:45.753Z,836.00
2023-04-09T09:57:45.759Z,842.00
2023-04-09T09:58:45.772Z,828.00
2023-04-09T09:59:45.767Z,832.00
2023-04-09T10:00:45.737Z,812.00
2023-04-09T10:01:45.821Z,795.00
2023-04-09T10:02:45.820Z,786.00
2023-04-09T10:03:45.720Z,768.00
2023-04-09T10:04:45.887Z,768.00
2023-04-09T10:05:45.705Z,769.00
2023-04-09T10:06:45.703Z,745.00
2023-04-09T10:07:45.715Z,731.00
2023-04-09T10:08:45.709Z,730.00
2023-04-09T10:09:45.705Z,718.00
2023-04-09T10:10:45.704Z,721.00
2023-04-09T10:11:45.747Z,706.00
2023-04-09T10:12:45.722Z,699.00
2023-04-09T10:13:45.701Z,666.00
2023-04-09T10:14:45.693Z,669.00
2023-04-09T10:15:45.743Z,664.00
2023-04-09T10:16:45.712Z,670.00
2023-04-09T10:17:45.763Z,661.00
2023-04-09T10:18:45.735Z,658.00
2023-04-09T10:19:45.711Z,652.00
2023-04-09T10:20:45.711Z,651.00
2023-04-09T10:21:45.712Z,645.00
2023-04-09T10:22:45.716Z,645.00
2023-04-09T10:23:45.729Z,643.00
2023-04-09T10:24:45.730Z,637.00
2023-04-09T10:25:45.730Z,632.00
2023-04-09T10:26:45.718Z,634.00
2023-04-09T10:27:45.710Z,634.00
2023-04-09T10:28:45.708Z,635.00
2023-04-09T10:29:45.709Z,632.00
2023-04-09T10:30:45.796Z,635.00
2023-04-09T10:31:45.713Z,628.00
2023-04-09T10:32:45.786Z,628.00
2023-04-09T10:33:45.722Z,620.00
2023-04-09T10:34:45.704Z,624.00
2023-04-09T10:35:45.724Z,620.00
2023-04-09T10:36:45.692Z,610.00
2023-04-09T10:37:45.691Z,613.00
2023-04-09T10:38:45.685Z,611.00
2023-04-09T10:39:45.707Z,605.00
2023-04-09T10:40:45.664Z,601.00
2023-04-09T10:41:45.657Z,597.00
2023-04-09T10:42:45.657Z,593.00
2023-04-09T10:43:45.642Z,602.00
2023-04-09T10:44:45.627Z,587.00
2023-04-09T10:45:45.634Z,578.00
2023-04-09T10:46:45.672Z,578.00
2023-04-09T10:47:45.623Z,570.00
2023-04-09T10:48:45.592Z,567.00
2023-04-09T10:49:45.568Z,567.00
2023-04-09T10:50:45.565Z,564.00
2023-04-09T10:51:45.544Z,563.00
2023-04-09T10:52:45.553Z,560.00
2023-04-09T10:53:45.535Z,559.00
2023-04-09T10:54:45.573Z,554.00
2023-04-09T10:55:45.531Z,556.00
2023-04-09T10:56:45.509Z,574.00
2023-04-09T10:57:45.506Z,589.00
2023-04-09T10:58:45.480Z,579.00
2023-04-09T10:59:45.469Z,570.00
2023-04-09T11:00:45.506Z,580.00
2023-04-09T11:01:45.516Z,580.00
2023-04-09T11:02:45.623Z,572.00
2023-04-09T11:03:45.491Z,546.00
2023-04-09T11:04:45.468Z,541.00
2023-04-09T11:05:45.484Z,548.00
2023-04-09T11:06:45.497Z,553.00
2023-04-09T11:07:45.522Z,556.00
2023-04-09T11:08:45.528Z,575.00
2023-04-09T11:09:45.532Z,572.00
2023-04-09T11:10:45.537Z,568.00
2023-04-09T11:11:45.548Z,566.00
2023-04-09T11:12:45.567Z,578.00
2023-04-09T11:13:45.577Z,582.00
2023-04-09T11:14:45.596Z,588.00
2023-04-09T11:15:45.604Z,587.00
2023-04-09T11:16:45.672Z,559.00
2023-04-09T11:17:45.603Z,552.00
2023-04-09T11:18:45.568Z,544.00
2023-04-09T11:19:45.556Z,526.00
2023-04-09T11:20:45.622Z,527.00
2023-04-09T11:21:45.591Z,529.00
2023-04-09T11:22:45.606Z,532.00
2023-04-09T11:23:45.607Z,518.00
2023-04-09T11:24:45.585Z,520.00
2023-04-09T11:25:45.592Z,498.00
2023-04-09T11:26:45.567Z,484.00
2023-04-09T11:27:46.819Z,475.00
2023-04-09T11:28:45.544Z,501.00
2023-04-09T11:29:45.536Z,500.00
2023-04-09T11:30:45.540Z,503.00
2023-04-09T11:31:45.614Z,500.00
2023-04-09T11:32:45.553Z,500.00
2023-04-09T11:33:45.490Z,501.00
2023-04-09T11:34:45.489Z,500.00
2023-04-09T11:35:45.525Z,503.00
2023-04-09T11:36:45.476Z,500.00
2023-04-09T11:37:45.492Z,500.00
2023-04-09T11:38:45.470Z,500.00
2023-04-09T11:39:45.485Z,503.00
2023-04-09T11:40:45.492Z,500.00
2023-04-09T11:41:45.498Z,503.00
2023-04-09T11:42:45.522Z,502.00
2023-04-09T11:43:45.542Z,500.00
2023-04-09T11:44:45.514Z,506.00
2023-04-09T11:45:45.500Z,506.00
2023-04-09T11:46:45.531Z,506.00
2023-04-09T11:47:45.615Z,508.00
2023-04-09T11:48:45.403Z,514.00
2023-04-09T11:49:45.399Z,534.00
2023-04-09T11:50:45.390Z,538.00
2023-04-09T11:51:45.375Z,522.00
2023-04-09T11:52:45.361Z,548.00
2023-04-09T11:53:45.354Z,544.00
2023-04-09T11:54:45.326Z,558.00
2023-04-09T11:55:45.317Z,572.00
2023-04-09T11:56:45.293Z,584.00
2023-04-09T11:57:45.302Z,602.00
2023-04-09T11:58:45.330Z,611.00
2023-04-09T11:59:45.394Z,629.00
2023-04-09T12:00:45.441Z,637.00
2023-04-09T12:01:45.548Z,646.00
2023-04-09T12:02:45.746Z,647.00
2023-04-09T12:03:45.650Z,659.00
2023-04-09T12:04:45.903Z,664.00
2023-04-09T12:05:49.281Z,657.00
2023-04-09T12:06:46.638Z,657.00
2023-04-09T12:07:55.452Z,657.00
2023-04-09T12:08:46.742Z,657.00
2023-04-09T12:09:45.584Z,659.00
2023-04-09T12:10:45.590Z,665.00